sensor_id;sensor_type;location;lat;lon;timestamp;temperature;humidity
573;DHT22;271;51.114;13.780;2023-07-09T00:01:47;18.50;1.00
573;DHT22;271;51.114;13.780;2023-07-09T00:04:35;18.50;1.00
573;DHT22;271;51.114;13.780;2023-07-09T00:07:25;18.50;1.00
573;DHT22;271;51.114;13.780;2023-07-09T00:10:16;18.40;1.00
573;DHT22;271;51.114;13.780;2023-07-09T00:13:05;18.30;1.00
573;DHT22;271;51.114;13.780;2023-07-09T00:15:56;18.10;1.00
573;DHT22;271;51.114;13.780;2023-07-09T00:18:45;18.10;1.00
573;DHT22;271;51.114;13.780;2023-07-09T00:21:34;18.10;1.00
573;DHT22;271;51.114;13.780;2023-07-09T00:24:22;18.00;1.00
573;DHT22;271;51.114;13.780;2023-07-09T00:27:11;17.90;1.00
573;DHT22;271;51.114;13.780;2023-07-09T00:30:00;17.90;1.00
573;DHT22;271;51.114;13.780;2023-07-09T00:32:50;17.80;1.00
573;DHT22;271;51.114;13.780;2023-07-09T00:35:38;17.70;1.00
573;DHT22;271;51.114;13.780;2023-07-09T00:38:26;17.70;1.00
573;DHT22;271;51.114;13.780;2023-07-09T00:41:16;17.60;1.00
573;DHT22;271;51.114;13.780;2023-07-09T00:44:23;17.60;1.00
573;DHT22;271;51.114;13.780;2023-07-09T00:47:23;17.60;1.00
573;DHT22;271;51.114;13.780;2023-07-09T00:50:18;17.50;1.00
573;DHT22;271;51.114;13.780;2023-07-09T00:53:14;17.50;1.00
573;DHT22;271;51.114;13.780;2023-07-09T00:56:06;17.50;1.00
573;DHT22;271;51.114;13.780;2023-07-09T00:58:57;17.50;1.00
573;DHT22;271;51.114;13.780;2023-07-09T01:01:46;17.40;1.00
573;DHT22;271;51.114;13.780;2023-07-09T01:04:37;17.40;1.00
573;DHT22;271;51.114;13.780;2023-07-09T01:07:26;17.40;1.00
573;DHT22;271;51.114;13.780;2023-07-09T01:10:15;17.30;1.00
573;DHT22;271;51.114;13.780;2023-07-09T01:13:03;17.30;1.00
573;DHT22;271;51.114;13.780;2023-07-09T01:15:51;17.20;1.00
573;DHT22;271;51.114;13.780;2023-07-09T01:18:39;17.20;1.00
573;DHT22;271;51.114;13.780;2023-07-09T01:21:28;17.10;1.00
573;DHT22;271;51.114;13.780;2023-07-09T01:24:47;17.10;1.00
573;DHT22;271;51.114;13.780;2023-07-09T01:27:37;17.10;1.00
573;DHT22;271;51.114;13.780;2023-07-09T01:30:30;16.90;1.00
573;DHT22;271;51.114;13.780;2023-07-09T01:33:20;17.00;1.00
573;DHT22;271;51.114;13.780;2023-07-09T01:36:08;16.90;1.00
573;DHT22;271;51.114;13.780;2023-07-09T01:38:58;16.90;1.00
573;DHT22;271;51.114;13.780;2023-07-09T01:41:45;16.80;1.00
573;DHT22;271;51.114;13.780;2023-07-09T01:44:34;16.80;1.00
573;DHT22;271;51.114;13.780;2023-07-09T01:47:22;16.70;1.00
573;DHT22;271;51.114;13.780;2023-07-09T01:50:11;16.80;1.00
573;DHT22;271;51.114;13.780;2023-07-09T01:52:59;16.80;1.00
573;DHT22;271;51.114;13.780;2023-07-09T01:55:48;16.80;1.00
573;DHT22;271;51.114;13.780;2023-07-09T01:58:36;16.70;1.00
573;DHT22;271;51.114;13.780;2023-07-09T02:01:28;16.70;1.00
573;DHT22;271;51.114;13.780;2023-07-09T02:04:17;16.60;1.00
573;DHT22;271;51.114;13.780;2023-07-09T02:07:06;16.50;1.00
573;DHT22;271;51.114;13.780;2023-07-09T02:09:53;16.50;1.00
573;DHT22;271;51.114;13.780;2023-07-09T02:12:43;16.40;1.00
573;DHT22;271;51.114;13.780;2023-07-09T02:15:30;16.40;1.00
573;DHT22;271;51.114;13.780;2023-07-09T02:18:18;16.40;1.00
573;DHT22;271;51.114;13.780;2023-07-09T02:21:06;16.40;1.00
573;DHT22;271;51.114;13.780;2023-07-09T02:23:54;16.40;1.00
573;DHT22;271;51.114;13.780;2023-07-09T02:26:41;16.30;1.00
573;DHT22;271;51.114;13.780;2023-07-09T02:29:31;16.20;1.00
573;DHT22;271;51.114;13.780;2023-07-09T02:32:20;16.10;1.00
573;DHT22;271;51.114;13.780;2023-07-09T02:35:08;16.10;1.00
573;DHT22;271;51.114;13.780;2023-07-09T02:37:56;16.10;1.00
573;DHT22;271;51.114;13.780;2023-07-09T02:40:44;16.10;1.00
573;DHT22;271;51.114;13.780;2023-07-09T02:43:31;16.10;1.00
573;DHT22;271;51.114;13.780;2023-07-09T02:46:21;15.90;1.00
573;DHT22;271;51.114;13.780;2023-07-09T02:49:10;15.90;1.00
573;DHT22;271;51.114;13.780;2023-07-09T02:51:58;15.80;1.00
573;DHT22;271;51.114;13.780;2023-07-09T02:54:46;15.90;1.00
573;DHT22;271;51.114;13.780;2023-07-09T02:57:34;15.90;1.00
573;DHT22;271;51.114;13.780;2023-07-09T03:00:22;16.00;1.00
573;DHT22;271;51.114;13.780;2023-07-09T03:03:11;16.10;1.00
573;DHT22;271;51.114;13.780;2023-07-09T03:05:58;16.10;1.00
573;DHT22;271;51.114;13.780;2023-07-09T03:08:46;16.00;1.00
573;DHT22;271;51.114;13.780;2023-07-09T03:11:35;15.90;1.00
573;DHT22;271;51.114;13.780;2023-07-09T03:14:23;15.80;1.00
573;DHT22;271;51.114;13.780;2023-07-09T03:17:10;15.80;1.00
573;DHT22;271;51.114;13.780;2023-07-09T03:20:00;15.80;1.00
573;DHT22;271;51.114;13.780;2023-07-09T03:22:48;15.80;1.00
573;DHT22;271;51.114;13.780;2023-07-09T03:25:40;15.70;1.00
573;DHT22;271;51.114;13.780;2023-07-09T03:28:30;15.80;1.00
573;DHT22;271;51.114;13.780;2023-07-09T03:31:18;15.70;1.00
573;DHT22;271;51.114;13.780;2023-07-09T03:34:06;15.80;1.00
573;DHT22;271;51.114;13.780;2023-07-09T03:36:55;15.80;1.00
573;DHT22;271;51.114;13.780;2023-07-09T03:39:45;15.90;1.00
573;DHT22;271;51.114;13.780;2023-07-09T03:42:33;15.90;1.00
573;DHT22;271;51.114;13.780;2023-07-09T03:45:21;16.10;1.00
573;DHT22;271;51.114;13.780;2023-07-09T03:48:09;16.10;1.00
573;DHT22;271;51.114;13.780;2023-07-09T03:50:56;16.20;1.00
573;DHT22;271;51.114;13.780;2023-07-09T03:53:45;16.10;1.00
573;DHT22;271;51.114;13.780;2023-07-09T03:56:33;16.10;1.00
573;DHT22;271;51.114;13.780;2023-07-09T03:59:21;16.20;1.00
573;DHT22;271;51.114;13.780;2023-07-09T04:02:08;16.30;1.00
573;DHT22;271;51.114;13.780;2023-07-09T04:04:56;16.40;1.00
573;DHT22;271;51.114;13.780;2023-07-09T04:07:44;16.40;1.00
573;DHT22;271;51.114;13.780;2023-07-09T04:10:34;16.40;1.00
573;DHT22;271;51.114;13.780;2023-07-09T04:13:21;16.50;1.00
573;DHT22;271;51.114;13.780;2023-07-09T04:16:10;16.50;1.00
573;DHT22;271;51.114;13.780;2023-07-09T04:18:58;16.80;1.00
573;DHT22;271;51.114;13.780;2023-07-09T04:21:45;16.80;1.00
573;DHT22;271;51.114;13.780;2023-07-09T04:24:33;16.80;1.00
573;DHT22;271;51.114;13.780;2023-07-09T04:27:22;17.00;1.00
573;DHT22;271;51.114;13.780;2023-07-09T04:30:14;17.20;1.00
573;DHT22;271;51.114;13.780;2023-07-09T04:33:02;17.30;1.00
573;DHT22;271;51.114;13.780;2023-07-09T04:35:50;17.50;1.00
573;DHT22;271;51.114;13.780;2023-07-09T04:38:38;17.60;1.00
573;DHT22;271;51.114;13.780;2023-07-09T04:41:25;17.70;1.00
573;DHT22;271;51.114;13.780;2023-07-09T04:44:14;17.80;1.00
573;DHT22;271;51.114;13.780;2023-07-09T04:47:02;18.00;1.00
573;DHT22;271;51.114;13.780;2023-07-09T04:49:50;18.10;1.00
573;DHT22;271;51.114;13.780;2023-07-09T04:52:37;18.20;1.00
573;DHT22;271;51.114;13.780;2023-07-09T04:55:25;18.40;1.00
573;DHT22;271;51.114;13.780;2023-07-09T04:58:14;18.60;1.00
573;DHT22;271;51.114;13.780;2023-07-09T05:01:03;18.80;1.00
573;DHT22;271;51.114;13.780;2023-07-09T05:03:50;19.00;1.00
573;DHT22;271;51.114;13.780;2023-07-09T05:06:38;19.20;1.00
573;DHT22;271;51.114;13.780;2023-07-09T05:09:26;19.50;1.00
573;DHT22;271;51.114;13.780;2023-07-09T05:12:14;19.60;1.00
573;DHT22;271;51.114;13.780;2023-07-09T05:15:03;20.00;1.00
573;DHT22;271;51.114;13.780;2023-07-09T05:17:52;20.30;1.00
573;DHT22;271;51.114;13.780;2023-07-09T05:20:40;20.80;1.00
573;DHT22;271;51.114;13.780;2023-07-09T05:23:28;21.60;1.00
573;DHT22;271;51.114;13.780;2023-07-09T05:26:15;22.30;1.00
573;DHT22;271;51.114;13.780;2023-07-09T05:29:03;23.20;1.00
573;DHT22;271;51.114;13.780;2023-07-09T05:31:51;24.10;1.00
573;DHT22;271;51.114;13.780;2023-07-09T05:34:41;25.10;1.00
573;DHT22;271;51.114;13.780;2023-07-09T05:37:29;25.90;1.00
573;DHT22;271;51.114;13.780;2023-07-09T05:40:17;26.20;1.00
573;DHT22;271;51.114;13.780;2023-07-09T05:43:04;26.90;1.00
573;DHT22;271;51.114;13.780;2023-07-09T05:45:52;27.30;1.00
573;DHT22;271;51.114;13.780;2023-07-09T05:48:40;27.70;1.00
573;DHT22;271;51.114;13.780;2023-07-09T05:51:29;28.10;1.00
573;DHT22;271;51.114;13.780;2023-07-09T05:54:17;28.40;1.00
573;DHT22;271;51.114;13.780;2023-07-09T05:57:05;28.90;1.00
573;DHT22;271;51.114;13.780;2023-07-09T05:59:53;29.20;1.00
573;DHT22;271;51.114;13.780;2023-07-09T06:02:41;29.50;1.00
573;DHT22;271;51.114;13.780;2023-07-09T06:05:29;30.00;1.00
573;DHT22;271;51.114;13.780;2023-07-09T06:08:18;30.40;1.00
573;DHT22;271;51.114;13.780;2023-07-09T06:11:06;31.00;1.00
573;DHT22;271;51.114;13.780;2023-07-09T06:13:54;31.70;1.00
573;DHT22;271;51.114;13.780;2023-07-09T06:16:42;32.50;1.00
573;DHT22;271;51.114;13.780;2023-07-09T06:19:30;32.90;1.00
573;DHT22;271;51.114;13.780;2023-07-09T06:22:17;32.90;1.00
573;DHT22;271;51.114;13.780;2023-07-09T06:25:07;33.80;1.00
573;DHT22;271;51.114;13.780;2023-07-09T06:27:56;34.10;1.00
573;DHT22;271;51.114;13.780;2023-07-09T06:30:45;34.20;1.00
573;DHT22;271;51.114;13.780;2023-07-09T06:33:32;34.60;1.00
573;DHT22;271;51.114;13.780;2023-07-09T06:36:20;34.90;1.00
573;DHT22;271;51.114;13.780;2023-07-09T06:39:08;35.10;1.00
573;DHT22;271;51.114;13.780;2023-07-09T06:41:57;35.50;1.00
573;DHT22;271;51.114;13.780;2023-07-09T06:44:45;35.30;1.00
573;DHT22;271;51.114;13.780;2023-07-09T06:47:32;35.20;1.00
573;DHT22;271;51.114;13.780;2023-07-09T06:50:20;35.70;1.00
573;DHT22;271;51.114;13.780;2023-07-09T06:53:08;36.30;1.00
573;DHT22;271;51.114;13.780;2023-07-09T06:55:56;36.90;1.00
573;DHT22;271;51.114;13.780;2023-07-09T06:58:46;37.00;1.00
573;DHT22;271;51.114;13.780;2023-07-09T07:01:34;37.40;1.00
573;DHT22;271;51.114;13.780;2023-07-09T07:04:22;37.90;1.00
573;DHT22;271;51.114;13.780;2023-07-09T07:07:09;37.50;1.00
573;DHT22;271;51.114;13.780;2023-07-09T07:09:57;37.50;1.00
573;DHT22;271;51.114;13.780;2023-07-09T07:12:47;38.20;1.00
573;DHT22;271;51.114;13.780;2023-07-09T07:15:38;38.80;1.00
573;DHT22;271;51.114;13.780;2023-07-09T07:18:26;39.20;1.00
573;DHT22;271;51.114;13.780;2023-07-09T07:21:14;39.50;1.00
573;DHT22;271;51.114;13.780;2023-07-09T07:24:01;39.70;1.00
573;DHT22;271;51.114;13.780;2023-07-09T07:26:50;39.40;1.00
573;DHT22;271;51.114;13.780;2023-07-09T07:29:37;39.60;1.00
573;DHT22;271;51.114;13.780;2023-07-09T07:32:29;39.10;1.00
573;DHT22;271;51.114;13.780;2023-07-09T07:35:17;39.40;1.00
573;DHT22;271;51.114;13.780;2023-07-09T07:38:06;39.10;1.00
573;DHT22;271;51.114;13.780;2023-07-09T07:40:54;38.80;1.00
573;DHT22;271;51.114;13.780;2023-07-09T07:43:41;38.50;1.00
573;DHT22;271;51.114;13.780;2023-07-09T07:46:29;38.80;1.00
573;DHT22;271;51.114;13.780;2023-07-09T07:49:20;39.70;1.00
573;DHT22;271;51.114;13.780;2023-07-09T07:52:08;39.90;1.00
573;DHT22;271;51.114;13.780;2023-07-09T07:54:56;40.10;1.00
573;DHT22;271;51.114;13.780;2023-07-09T07:57:44;40.00;1.00
573;DHT22;271;51.114;13.780;2023-07-09T08:00:37;39.80;1.00
573;DHT22;271;51.114;13.780;2023-07-09T08:03:25;39.90;1.00
573;DHT22;271;51.114;13.780;2023-07-09T08:06:14;39.80;1.00
573;DHT22;271;51.114;13.780;2023-07-09T08:09:08;39.40;1.00
573;DHT22;271;51.114;13.780;2023-07-09T08:11:56;39.50;1.00
573;DHT22;271;51.114;13.780;2023-07-09T08:14:45;39.80;1.00
573;DHT22;271;51.114;13.780;2023-07-09T08:17:36;40.10;1.00
573;DHT22;271;51.114;13.780;2023-07-09T08:20:24;40.00;1.00
573;DHT22;271;51.114;13.780;2023-07-09T08:23:16;39.70;1.00
573;DHT22;271;51.114;13.780;2023-07-09T08:26:04;39.90;1.00
573;DHT22;271;51.114;13.780;2023-07-09T08:28:52;39.80;1.00
573;DHT22;271;51.114;13.780;2023-07-09T08:31:39;39.50;1.00
573;DHT22;271;51.114;13.780;2023-07-09T08:34:28;39.50;1.00
573;DHT22;271;51.114;13.780;2023-07-09T08:37:16;39.50;1.00
573;DHT22;271;51.114;13.780;2023-07-09T08:40:11;39.10;1.00
573;DHT22;271;51.114;13.780;2023-07-09T08:43:02;38.80;1.00
573;DHT22;271;51.114;13.780;2023-07-09T08:45:58;38.60;1.00
573;DHT22;271;51.114;13.780;2023-07-09T08:48:50;38.20;1.00
573;DHT22;271;51.114;13.780;2023-07-09T08:51:40;38.50;1.00
573;DHT22;271;51.114;13.780;2023-07-09T08:54:32;38.80;1.00
573;DHT22;271;51.114;13.780;2023-07-09T08:57:33;39.10;1.00
573;DHT22;271;51.114;13.780;2023-07-09T09:00:29;38.80;1.00
573;DHT22;271;51.114;13.780;2023-07-09T09:03:30;38.50;1.00
573;DHT22;271;51.114;13.780;2023-07-09T09:06:26;38.00;1.00
573;DHT22;271;51.114;13.780;2023-07-09T09:09:25;37.80;1.00
573;DHT22;271;51.114;13.780;2023-07-09T09:12:19;37.20;1.00
573;DHT22;271;51.114;13.780;2023-07-09T09:15:14;36.90;1.00
573;DHT22;271;51.114;13.780;2023-07-09T09:18:19;36.70;1.00
573;DHT22;271;51.114;13.780;2023-07-09T09:21:11;36.70;1.00
573;DHT22;271;51.114;13.780;2023-07-09T09:24:20;36.20;1.00
573;DHT22;271;51.114;13.780;2023-07-09T09:27:10;36.10;1.00
573;DHT22;271;51.114;13.780;2023-07-09T09:29:58;35.80;1.00
573;DHT22;271;51.114;13.780;2023-07-09T09:32:50;35.90;1.00
573;DHT22;271;51.114;13.780;2023-07-09T09:35:43;36.00;1.00
573;DHT22;271;51.114;13.780;2023-07-09T09:38:35;36.10;1.00
573;DHT22;271;51.114;13.780;2023-07-09T09:41:25;36.10;1.00
573;DHT22;271;51.114;13.780;2023-07-09T09:44:19;36.20;1.00
573;DHT22;271;51.114;13.780;2023-07-09T09:47:08;36.40;1.00
573;DHT22;271;51.114;13.780;2023-07-09T09:49:58;36.50;1.00
573;DHT22;271;51.114;13.780;2023-07-09T09:52:47;36.20;1.00
573;DHT22;271;51.114;13.780;2023-07-09T09:55:38;36.40;1.00
573;DHT22;271;51.114;13.780;2023-07-09T09:58:28;36.50;1.00
573;DHT22;271;51.114;13.780;2023-07-09T10:01:18;36.50;1.00
573;DHT22;271;51.114;13.780;2023-07-09T10:04:06;36.50;1.00
573;DHT22;271;51.114;13.780;2023-07-09T10:06:56;36.70;1.00
573;DHT22;271;51.114;13.780;2023-07-09T10:09:48;36.90;1.00
573;DHT22;271;51.114;13.780;2023-07-09T10:12:49;36.70;1.00
573;DHT22;271;51.114;13.780;2023-07-09T10:15:55;36.80;1.00
573;DHT22;271;51.114;13.780;2023-07-09T10:18:52;37.10;1.00
573;DHT22;271;51.114;13.780;2023-07-09T10:21:46;37.10;1.00
573;DHT22;271;51.114;13.780;2023-07-09T10:24:44;37.10;1.00
573;DHT22;271;51.114;13.780;2023-07-09T10:27:38;37.10;1.00
573;DHT22;271;51.114;13.780;2023-07-09T10:30:41;37.00;1.00
573;DHT22;271;51.114;13.780;2023-07-09T10:33:41;37.10;1.00
573;DHT22;271;51.114;13.780;2023-07-09T10:36:43;37.40;1.00
573;DHT22;271;51.114;13.780;2023-07-09T10:39:40;37.30;1.00
573;DHT22;271;51.114;13.780;2023-07-09T10:42:35;37.60;1.00
573;DHT22;271;51.114;13.780;2023-07-09T10:45:29;37.90;1.00
573;DHT22;271;51.114;13.780;2023-07-09T10:48:30;38.00;1.00
573;DHT22;271;51.114;13.780;2023-07-09T10:51:23;37.90;1.00
573;DHT22;271;51.114;13.780;2023-07-09T10:54:18;37.90;1.00
573;DHT22;271;51.114;13.780;2023-07-09T10:58:02;37.90;1.00
573;DHT22;271;51.114;13.780;2023-07-09T11:00:54;37.60;1.00
573;DHT22;271;51.114;13.780;2023-07-09T11:03:47;37.40;1.00
573;DHT22;271;51.114;13.780;2023-07-09T11:06:39;37.20;1.00
573;DHT22;271;51.114;13.780;2023-07-09T11:09:44;36.60;1.00
573;DHT22;271;51.114;13.780;2023-07-09T11:12:43;36.70;1.00
573;DHT22;271;51.114;13.780;2023-07-09T11:15:36;37.00;1.00
573;DHT22;271;51.114;13.780;2023-07-09T11:18:26;37.20;1.00
573;DHT22;271;51.114;13.780;2023-07-09T11:21:16;37.20;1.00
573;DHT22;271;51.114;13.780;2023-07-09T11:24:05;37.20;1.00
573;DHT22;271;51.114;13.780;2023-07-09T11:26:53;37.00;1.00
573;DHT22;271;51.114;13.780;2023-07-09T11:29:47;37.00;1.00
573;DHT22;271;51.114;13.780;2023-07-09T11:32:56;37.10;1.00
573;DHT22;271;51.114;13.780;2023-07-09T11:35:47;36.90;1.00
573;DHT22;271;51.114;13.780;2023-07-09T11:38:39;36.50;1.00
573;DHT22;271;51.114;13.780;2023-07-09T11:41:37;35.80;1.00
573;DHT22;271;51.114;13.780;2023-07-09T11:44:30;35.60;1.00
573;DHT22;271;51.114;13.780;2023-07-09T11:47:36;35.50;1.00
573;DHT22;271;51.114;13.780;2023-07-09T11:50:28;35.30;1.00
573;DHT22;271;51.114;13.780;2023-07-09T11:53:25;35.00;1.00
573;DHT22;271;51.114;13.780;2023-07-09T11:56:18;34.90;1.00
573;DHT22;271;51.114;13.780;2023-07-09T11:59:20;34.50;1.00
573;DHT22;271;51.114;13.780;2023-07-09T12:02:17;34.30;1.00
573;DHT22;271;51.114;13.780;2023-07-09T12:05:08;34.30;1.00
573;DHT22;271;51.114;13.780;2023-07-09T12:07:57;34.10;1.00
573;DHT22;271;51.114;13.780;2023-07-09T12:10:45;33.90;1.00
573;DHT22;271;51.114;13.780;2023-07-09T12:13:36;33.80;1.00
573;DHT22;271;51.114;13.780;2023-07-09T12:16:27;33.70;1.00
573;DHT22;271;51.114;13.780;2023-07-09T12:19:17;33.70;1.00
573;DHT22;271;51.114;13.780;2023-07-09T12:22:14;33.60;1.00
573;DHT22;271;51.114;13.780;2023-07-09T12:25:26;33.40;1.00
573;DHT22;271;51.114;13.780;2023-07-09T12:28:15;33.20;1.00
573;DHT22;271;51.114;13.780;2023-07-09T12:31:03;33.20;1.00
573;DHT22;271;51.114;13.780;2023-07-09T12:33:53;33.20;1.00
573;DHT22;271;51.114;13.780;2023-07-09T12:36:44;33.20;1.00
573;DHT22;271;51.114;13.780;2023-07-09T12:39:35;33.30;1.00
573;DHT22;271;51.114;13.780;2023-07-09T12:42:30;33.40;1.00
573;DHT22;271;51.114;13.780;2023-07-09T12:45:40;33.40;1.00
573;DHT22;271;51.114;13.780;2023-07-09T12:48:29;33.40;1.00
573;DHT22;271;51.114;13.780;2023-07-09T12:51:21;33.30;1.00
573;DHT22;271;51.114;13.780;2023-07-09T12:54:14;33.30;1.00
573;DHT22;271;51.114;13.780;2023-07-09T12:57:25;33.30;1.00
573;DHT22;271;51.114;13.780;2023-07-09T13:00:18;33.30;1.00
573;DHT22;271;51.114;13.780;2023-07-09T13:03:13;33.30;1.00
573;DHT22;271;51.114;13.780;2023-07-09T13:06:04;33.30;1.00
573;DHT22;271;51.114;13.780;2023-07-09T13:08:56;33.30;1.00
573;DHT22;271;51.114;13.780;2023-07-09T13:12:10;33.30;1.00
573;DHT22;271;51.114;13.780;2023-07-09T13:14:58;33.30;1.00
573;DHT22;271;51.114;13.780;2023-07-09T13:17:46;33.30;1.00
573;DHT22;271;51.114;13.780;2023-07-09T13:20:40;33.30;1.00
573;DHT22;271;51.114;13.780;2023-07-09T13:23:29;33.30;1.00
573;DHT22;271;51.114;13.780;2023-07-09T13:26:17;33.30;1.00
573;DHT22;271;51.114;13.780;2023-07-09T13:29:12;33.30;1.00
573;DHT22;271;51.114;13.780;2023-07-09T13:32:00;33.20;1.00
573;DHT22;271;51.114;13.780;2023-07-09T13:35:16;33.20;1.00
573;DHT22;271;51.114;13.780;2023-07-09T13:38:12;33.30;1.00
573;DHT22;271;51.114;13.780;2023-07-09T13:41:21;33.30;1.00
573;DHT22;271;51.114;13.780;2023-07-09T13:46:43;33.30;1.00
573;DHT22;271;51.114;13.780;2023-07-09T13:49:53;33.30;1.00
573;DHT22;271;51.114;13.780;2023-07-09T13:52:41;33.30;1.00
573;DHT22;271;51.114;13.780;2023-07-09T13:55:29;33.10;1.00
573;DHT22;271;51.114;13.780;2023-07-09T13:58:24;33.10;1.00
573;DHT22;271;51.114;13.780;2023-07-09T14:01:14;33.10;1.00
573;DHT22;271;51.114;13.780;2023-07-09T14:04:04;33.00;1.00
573;DHT22;271;51.114;13.780;2023-07-09T14:06:52;33.00;1.00
573;DHT22;271;51.114;13.780;2023-07-09T14:09:40;33.00;1.00
573;DHT22;271;51.114;13.780;2023-07-09T14:12:28;32.90;1.00
573;DHT22;271;51.114;13.780;2023-07-09T14:15:18;32.90;1.00
573;DHT22;271;51.114;13.780;2023-07-09T14:18:11;33.00;1.00
573;DHT22;271;51.114;13.780;2023-07-09T14:21:02;32.90;1.00
573;DHT22;271;51.114;13.780;2023-07-09T14:23:52;32.90;1.00
573;DHT22;271;51.114;13.780;2023-07-09T14:26:39;32.90;1.00
573;DHT22;271;51.114;13.780;2023-07-09T14:29:27;32.80;1.00
573;DHT22;271;51.114;13.780;2023-07-09T14:32:38;32.80;1.00
573;DHT22;271;51.114;13.780;2023-07-09T14:35:27;32.70;1.00
573;DHT22;271;51.114;13.780;2023-07-09T14:38:22;32.70;1.00
573;DHT22;271;51.114;13.780;2023-07-09T14:41:19;32.80;1.00
573;DHT22;271;51.114;13.780;2023-07-09T14:44:26;32.80;1.00
573;DHT22;271;51.114;13.780;2023-07-09T14:47:19;32.70;1.00
573;DHT22;271;51.114;13.780;2023-07-09T14:50:08;32.80;1.00
573;DHT22;271;51.114;13.780;2023-07-09T14:52:56;32.80;1.00
573;DHT22;271;51.114;13.780;2023-07-09T14:55:45;32.80;1.00
573;DHT22;271;51.114;13.780;2023-07-09T15:01:19;32.70;1.00
573;DHT22;271;51.114;13.780;2023-07-09T15:04:42;32.60;1.00
573;DHT22;271;51.114;13.780;2023-07-09T15:07:36;32.60;1.00
573;DHT22;271;51.114;13.780;2023-07-09T15:10:25;32.50;1.00
573;DHT22;271;51.114;13.780;2023-07-09T15:13:21;32.40;1.00
573;DHT22;271;51.114;13.780;2023-07-09T15:16:11;32.40;1.00
573;DHT22;271;51.114;13.780;2023-07-09T15:18:59;32.30;1.00
573;DHT22;271;51.114;13.780;2023-07-09T15:21:47;32.30;1.00
573;DHT22;271;51.114;13.780;2023-07-09T15:24:35;32.30;1.00
573;DHT22;271;51.114;13.780;2023-07-09T15:27:23;32.20;1.00
573;DHT22;271;51.114;13.780;2023-07-09T15:30:36;32.20;1.00
573;DHT22;271;51.114;13.780;2023-07-09T15:33:31;32.20;1.00
573;DHT22;271;51.114;13.780;2023-07-09T15:36:19;32.20;1.00
573;DHT22;271;51.114;13.780;2023-07-09T15:39:09;32.10;1.00
573;DHT22;271;51.114;13.780;2023-07-09T15:41:57;32.10;1.00
573;DHT22;271;51.114;13.780;2023-07-09T15:44:46;32.10;1.00
573;DHT22;271;51.114;13.780;2023-07-09T15:47:36;32.00;1.00
573;DHT22;271;51.114;13.780;2023-07-09T15:50:26;32.00;1.00
573;DHT22;271;51.114;13.780;2023-07-09T15:53:14;31.90;1.00
573;DHT22;271;51.114;13.780;2023-07-09T15:56:04;31.90;1.00
573;DHT22;271;51.114;13.780;2023-07-09T15:58:52;31.90;1.00
573;DHT22;271;51.114;13.780;2023-07-09T16:01:41;31.90;1.00
573;DHT22;271;51.114;13.780;2023-07-09T16:04:31;31.90;1.00
573;DHT22;271;51.114;13.780;2023-07-09T16:07:19;32.00;1.00
573;DHT22;271;51.114;13.780;2023-07-09T16:10:10;31.90;1.00
573;DHT22;271;51.114;13.780;2023-07-09T16:12:58;31.90;1.00
573;DHT22;271;51.114;13.780;2023-07-09T16:15:46;31.90;1.00
573;DHT22;271;51.114;13.780;2023-07-09T16:18:36;31.90;1.00
573;DHT22;271;51.114;13.780;2023-07-09T16:21:28;31.90;1.00
573;DHT22;271;51.114;13.780;2023-07-09T16:24:19;31.90;1.00
573;DHT22;271;51.114;13.780;2023-07-09T16:27:34;31.80;1.00
573;DHT22;271;51.114;13.780;2023-07-09T16:30:27;31.80;1.00
573;DHT22;271;51.114;13.780;2023-07-09T16:33:16;31.80;1.00
573;DHT22;271;51.114;13.780;2023-07-09T16:36:04;31.70;1.00
573;DHT22;271;51.114;13.780;2023-07-09T16:38:58;31.60;1.00
573;DHT22;271;51.114;13.780;2023-07-09T16:41:46;31.50;1.00
573;DHT22;271;51.114;13.780;2023-07-09T16:44:34;31.30;1.00
573;DHT22;271;51.114;13.780;2023-07-09T16:47:21;31.20;1.00
573;DHT22;271;51.114;13.780;2023-07-09T16:50:12;31.20;1.00
573;DHT22;271;51.114;13.780;2023-07-09T16:53:29;31.20;1.00
573;DHT22;271;51.114;13.780;2023-07-09T16:56:19;31.10;1.00
573;DHT22;271;51.114;13.780;2023-07-09T16:59:09;31.10;1.00
573;DHT22;271;51.114;13.780;2023-07-09T17:01:57;31.00;1.00
573;DHT22;271;51.114;13.780;2023-07-09T17:04:45;31.00;1.00
573;DHT22;271;51.114;13.780;2023-07-09T17:07:33;30.90;1.00
573;DHT22;271;51.114;13.780;2023-07-09T17:10:24;31.00;1.00
573;DHT22;271;51.114;13.780;2023-07-09T17:13:21;31.00;1.00
573;DHT22;271;51.114;13.780;2023-07-09T17:16:10;31.00;1.00
573;DHT22;271;51.114;13.780;2023-07-09T17:18:57;30.90;1.00
573;DHT22;271;51.114;13.780;2023-07-09T17:22:16;30.90;1.00
573;DHT22;271;51.114;13.780;2023-07-09T17:25:31;31.00;1.00
573;DHT22;271;51.114;13.780;2023-07-09T17:28:28;30.90;1.00
573;DHT22;271;51.114;13.780;2023-07-09T17:31:18;30.90;1.00
573;DHT22;271;51.114;13.780;2023-07-09T17:34:07;30.80;1.00
573;DHT22;271;51.114;13.780;2023-07-09T17:36:55;30.80;1.00
573;DHT22;271;51.114;13.780;2023-07-09T17:39:43;30.80;1.00
573;DHT22;271;51.114;13.780;2023-07-09T17:42:31;30.70;1.00
573;DHT22;271;51.114;13.780;2023-07-09T17:45:21;30.70;1.00
573;DHT22;271;51.114;13.780;2023-07-09T17:48:17;30.60;1.00
573;DHT22;271;51.114;13.780;2023-07-09T17:51:24;30.50;1.00
573;DHT22;271;51.114;13.780;2023-07-09T17:54:24;30.40;1.00
573;DHT22;271;51.114;13.780;2023-07-09T17:57:14;30.30;1.00
573;DHT22;271;51.114;13.780;2023-07-09T18:00:04;30.20;1.00
573;DHT22;271;51.114;13.780;2023-07-09T18:03:20;30.10;1.00
573;DHT22;271;51.114;13.780;2023-07-09T18:06:13;29.90;1.00
573;DHT22;271;51.114;13.780;2023-07-09T18:09:02;29.80;1.00
573;DHT22;271;51.114;13.780;2023-07-09T18:11:52;29.80;1.00
573;DHT22;271;51.114;13.780;2023-07-09T18:14:44;29.60;1.00
573;DHT22;271;51.114;13.780;2023-07-09T18:17:57;29.40;1.00
573;DHT22;271;51.114;13.780;2023-07-09T18:20:47;29.30;1.00
573;DHT22;271;51.114;13.780;2023-07-09T18:23:36;29.20;1.00
573;DHT22;271;51.114;13.780;2023-07-09T18:26:24;29.20;1.00
573;DHT22;271;51.114;13.780;2023-07-09T18:29:26;28.90;1.00
573;DHT22;271;51.114;13.780;2023-07-09T18:32:35;28.80;1.00
573;DHT22;271;51.114;13.780;2023-07-09T18:35:25;28.60;1.00
573;DHT22;271;51.114;13.780;2023-07-09T18:38:14;28.40;1.00
573;DHT22;271;51.114;13.780;2023-07-09T18:41:08;28.30;1.00
573;DHT22;271;51.114;13.780;2023-07-09T18:43:59;28.10;1.00
573;DHT22;271;51.114;13.780;2023-07-09T18:46:47;27.90;1.00
573;DHT22;271;51.114;13.780;2023-07-09T18:49:36;27.80;1.00
573;DHT22;271;51.114;13.780;2023-07-09T18:52:25;27.70;1.00
573;DHT22;271;51.114;13.780;2023-07-09T18:55:18;27.50;1.00
573;DHT22;271;51.114;13.780;2023-07-09T18:58:32;27.40;1.00
573;DHT22;271;51.114;13.780;2023-07-09T19:01:21;27.30;1.00
573;DHT22;271;51.114;13.780;2023-07-09T19:04:16;27.10;1.00
573;DHT22;271;51.114;13.780;2023-07-09T19:07:07;26.90;1.00
573;DHT22;271;51.114;13.780;2023-07-09T19:09:56;26.80;1.00
573;DHT22;271;51.114;13.780;2023-07-09T19:12:49;26.70;1.00
573;DHT22;271;51.114;13.780;2023-07-09T19:15:39;26.60;1.00
573;DHT22;271;51.114;13.780;2023-07-09T19:18:28;26.40;1.00
573;DHT22;271;51.114;13.780;2023-07-09T19:21:19;26.30;1.00
573;DHT22;271;51.114;13.780;2023-07-09T19:24:17;26.20;1.00